sensor_id;sensor_type;location;lat;lon;timestamp;temperature;humidity
46720;DHT22;32452;51.382;-0.002;2022-12-29T00:00:29;9.50;99.90
46720;DHT22;32452;51.382;-0.002;2022-12-29T00:03:14;9.50;99.90
46720;DHT22;32452;51.382;-0.002;2022-12-29T00:06:01;9.50;99.90
46720;DHT22;32452;51.382;-0.002;2022-12-29T00:08:48;9.60;99.90
46720;DHT22;32452;51.382;-0.002;2022-12-29T00:11:33;9.60;99.90
46720;DHT22;32452;51.382;-0.002;2022-12-29T00:14:19;9.50;99.90
46720;DHT22;32452;51.382;-0.002;2022-12-29T00:17:23;9.60;99.90
46720;DHT22;32452;51.382;-0.002;2022-12-29T00:20:09;9.60;99.90
46720;DHT22;32452;51.382;-0.002;2022-12-29T00:23:31;9.60;99.90
46720;DHT22;32452;51.382;-0.002;2022-12-29T00:27:10;9.60;99.90
46720;DHT22;32452;51.382;-0.002;2022-12-29T00:30:20;9.60;99.90
46720;DHT22;32452;51.382;-0.002;2022-12-29T00:33:32;9.50;99.90
46720;DHT22;32452;51.382;-0.002;2022-12-29T00:36:39;9.50;99.90
46720;DHT22;32452;51.382;-0.002;2022-12-29T00:39:25;9.50;99.90
46720;DHT22;32452;51.382;-0.002;2022-12-29T00:42:29;9.50;99.90
46720;DHT22;32452;51.382;-0.002;2022-12-29T00:45:33;9.50;99.90
46720;DHT22;32452;51.382;-0.002;2022-12-29T00:48:19;9.50;99.90
46720;DHT22;32452;51.382;-0.002;2022-12-29T00:51:25;9.50;99.90
46720;DHT22;32452;51.382;-0.002;2022-12-29T00:54:12;9.50;99.90
46720;DHT22;32452;51.382;-0.002;2022-12-29T00:56:58;9.40;99.90
46720;DHT22;32452;51.382;-0.002;2022-12-29T00:59:44;9.40;99.90
46720;DHT22;32452;51.382;-0.002;2022-12-29T01:02:30;9.30;99.90
46720;DHT22;32452;51.382;-0.002;2022-12-29T01:05:16;9.30;99.90
46720;DHT22;32452;51.382;-0.002;2022-12-29T01:08:02;9.30;99.90
46720;DHT22;32452;51.382;-0.002;2022-12-29T01:11:02;9.30;99.90
46720;DHT22;32452;51.382;-0.002;2022-12-29T01:13:47;9.30;99.90
46720;DHT22;32452;51.382;-0.002;2022-12-29T01:16:33;9.30;99.90
46720;DHT22;32452;51.382;-0.002;2022-12-29T01:19:19;9.30;99.90
46720;DHT22;32452;51.382;-0.002;2022-12-29T01:22:05;9.30;99.90
46720;DHT22;32452;51.382;-0.002;2022-12-29T01:24:51;9.30;99.90
46720;DHT22;32452;51.382;-0.002;2022-12-29T01:27:37;9.20;99.90
46720;DHT22;32452;51.382;-0.002;2022-12-29T01:30:22;9.20;99.90
46720;DHT22;32452;51.382;-0.002;2022-12-29T01:33:08;9.20;99.90
46720;DHT22;32452;51.382;-0.002;2022-12-29T01:35:59;9.20;99.90
46720;DHT22;32452;51.382;-0.002;2022-12-29T01:38:44;9.20;99.90
46720;DHT22;32452;51.382;-0.002;2022-12-29T01:41:30;9.30;99.90
46720;DHT22;32452;51.382;-0.002;2022-12-29T01:44:54;9.30;99.90
46720;DHT22;32452;51.382;-0.002;2022-12-29T01:47:50;9.30;99.90
46720;DHT22;32452;51.382;-0.002;2022-12-29T01:50:40;9.20;99.90
46720;DHT22;32452;51.382;-0.002;2022-12-29T01:53:28;9.20;99.90
46720;DHT22;32452;51.382;-0.002;2022-12-29T01:56:17;9.10;99.90
46720;DHT22;32452;51.382;-0.002;2022-12-29T01:59:07;9.10;99.90
46720;DHT22;32452;51.382;-0.002;2022-12-29T02:01:54;9.00;99.90
46720;DHT22;32452;51.382;-0.002;2022-12-29T02:04:41;9.00;99.90
46720;DHT22;32452;51.382;-0.002;2022-12-29T02:07:29;9.00;99.90
46720;DHT22;32452;51.382;-0.002;2022-12-29T02:10:15;9.00;99.90
46720;DHT22;32452;51.382;-0.002;2022-12-29T02:13:01;9.00;99.90
46720;DHT22;32452;51.382;-0.002;2022-12-29T02:34:10;8.90;99.90
46720;DHT22;32452;51.382;-0.002;2022-12-29T02:40:17;8.90;99.90
46720;DHT22;32452;51.382;-0.002;2022-12-29T02:52:19;9.00;99.90
46720;DHT22;32452;51.382;-0.002;2022-12-29T02:55:10;9.10;99.90
46720;DHT22;32452;51.382;-0.002;2022-12-29T02:58:22;9.10;99.90
46720;DHT22;32452;51.382;-0.002;2022-12-29T03:01:23;9.10;99.90
46720;DHT22;32452;51.382;-0.002;2022-12-29T03:07:21;9.20;99.90
46720;DHT22;32452;51.382;-0.002;2022-12-29T03:16:46;9.10;99.90
46720;DHT22;32452;51.382;-0.002;2022-12-29T03:19:36;9.10;99.90
46720;DHT22;32452;51.382;-0.002;2022-12-29T03:22:26;9.10;99.90
46720;DHT22;32452;51.382;-0.002;2022-12-29T03:25:30;9.20;99.90
46720;DHT22;32452;51.382;-0.002;2022-12-29T03:28:27;9.20;99.90
46720;DHT22;32452;51.382;-0.002;2022-12-29T03:31:14;9.30;99.90
46720;DHT22;32452;51.382;-0.002;2022-12-29T03:34:01;9.40;99.90
46720;DHT22;32452;51.382;-0.002;2022-12-29T03:36:52;9.40;99.90
46720;DHT22;32452;51.382;-0.002;2022-12-29T03:39:38;9.40;99.90
46720;DHT22;32452;51.382;-0.002;2022-12-29T03:42:27;9.50;99.90
46720;DHT22;32452;51.382;-0.002;2022-12-29T03:45:16;9.50;99.90
46720;DHT22;32452;51.382;-0.002;2022-12-29T03:48:02;9.50;99.90
46720;DHT22;32452;51.382;-0.002;2022-12-29T03:50:48;9.60;99.90
46720;DHT22;32452;51.382;-0.002;2022-12-29T03:53:33;9.60;99.90
46720;DHT22;32452;51.382;-0.002;2022-12-29T03:56:19;9.60;99.90
46720;DHT22;32452;51.382;-0.002;2022-12-29T03:59:04;9.60;99.90
46720;DHT22;32452;51.382;-0.002;2022-12-29T04:01:50;9.70;99.90
46720;DHT22;32452;51.382;-0.002;2022-12-29T04:04:35;9.60;99.90
46720;DHT22;32452;51.382;-0.002;2022-12-29T04:07:21;9.70;99.90
46720;DHT22;32452;51.382;-0.002;2022-12-29T04:10:07;9.70;99.90
46720;DHT22;32452;51.382;-0.002;2022-12-29T04:12:52;9.70;99.90
46720;DHT22;32452;51.382;-0.002;2022-12-29T04:15:38;9.70;99.90
46720;DHT22;32452;51.382;-0.002;2022-12-29T04:18:24;9.70;99.90
46720;DHT22;32452;51.382;-0.002;2022-12-29T04:21:09;9.70;99.90
46720;DHT22;32452;51.382;-0.002;2022-12-29T04:23:55;9.70;99.90
46720;DHT22;32452;51.382;-0.002;2022-12-29T04:26:41;9.70;99.90
46720;DHT22;32452;51.382;-0.002;2022-12-29T04:29:27;9.60;99.90
46720;DHT22;32452;51.382;-0.002;2022-12-29T04:32:16;9.60;99.90
46720;DHT22;32452;51.382;-0.002;2022-12-29T04:35:03;9.60;99.90
46720;DHT22;32452;51.382;-0.002;2022-12-29T04:37:48;9.50;99.90
46720;DHT22;32452;51.382;-0.002;2022-12-29T04:40:34;9.50;99.90
46720;DHT22;32452;51.382;-0.002;2022-12-29T04:43:19;9.40;99.90
46720;DHT22;32452;51.382;-0.002;2022-12-29T04:46:07;9.40;99.90
46720;DHT22;32452;51.382;-0.002;2022-12-29T04:48:52;9.40;99.90
46720;DHT22;32452;51.382;-0.002;2022-12-29T04:51:38;9.30;99.90
46720;DHT22;32452;51.382;-0.002;2022-12-29T04:54:23;9.40;99.90
46720;DHT22;32452;51.382;-0.002;2022-12-29T04:57:09;9.30;99.90
46720;DHT22;32452;51.382;-0.002;2022-12-29T04:59:55;9.40;99.90
46720;DHT22;32452;51.382;-0.002;2022-12-29T05:02:40;9.40;99.90
46720;DHT22;32452;51.382;-0.002;2022-12-29T05:05:27;9.40;99.90
46720;DHT22;32452;51.382;-0.002;2022-12-29T05:08:12;9.40;99.90
46720;DHT22;32452;51.382;-0.002;2022-12-29T05:10:58;9.40;99.90
46720;DHT22;32452;51.382;-0.002;2022-12-29T05:13:47;9.40;99.90
46720;DHT22;32452;51.382;-0.002;2022-12-29T05:16:32;9.40;99.90
46720;DHT22;32452;51.382;-0.002;2022-12-29T05:19:18;9.40;99.90
46720;DHT22;32452;51.382;-0.002;2022-12-29T05:22:04;9.40;99.90
46720;DHT22;32452;51.382;-0.002;2022-12-29T05:24:49;9.40;99.90
46720;DHT22;32452;51.382;-0.002;2022-12-29T05:27:35;9.40;99.90
46720;DHT22;32452;51.382;-0.002;2022-12-29T05:30:20;9.40;99.90
46720;DHT22;32452;51.382;-0.002;2022-12-29T05:33:06;9.30;99.90
46720;DHT22;32452;51.382;-0.002;2022-12-29T05:35:51;9.30;99.90
46720;DHT22;32452;51.382;-0.002;2022-12-29T05:38:38;9.30;99.90
46720;DHT22;32452;51.382;-0.002;2022-12-29T05:41:23;9.30;99.90
46720;DHT22;32452;51.382;-0.002;2022-12-29T05:44:10;9.30;99.90
46720;DHT22;32452;51.382;-0.002;2022-12-29T05:46:56;9.30;99.90
46720;DHT22;32452;51.382;-0.002;2022-12-29T05:49:41;9.30;99.90
46720;DHT22;32452;51.382;-0.002;2022-12-29T05:52:27;9.30;99.90
46720;DHT22;32452;51.382;-0.002;2022-12-29T05:55:12;9.30;99.90
46720;DHT22;32452;51.382;-0.002;2022-12-29T05:57:59;9.30;99.90
46720;DHT22;32452;51.382;-0.002;2022-12-29T06:00:44;9.30;99.90
46720;DHT22;32452;51.382;-0.002;2022-12-29T06:03:30;9.30;99.90
46720;DHT22;32452;51.382;-0.002;2022-12-29T06:06:16;9.30;99.90
46720;DHT22;32452;51.382;-0.002;2022-12-29T06:09:01;9.40;99.90
46720;DHT22;32452;51.382;-0.002;2022-12-29T06:11:46;9.40;99.90
46720;DHT22;32452;51.382;-0.002;2022-12-29T06:14:32;9.40;99.90
46720;DHT22;32452;51.382;-0.002;2022-12-29T06:17:17;9.40;99.90
46720;DHT22;32452;51.382;-0.002;2022-12-29T06:20:03;9.40;99.90
46720;DHT22;32452;51.382;-0.002;2022-12-29T06:22:49;9.40;99.90
46720;DHT22;32452;51.382;-0.002;2022-12-29T06:25:35;9.40;99.90
46720;DHT22;32452;51.382;-0.002;2022-12-29T06:28:21;9.40;99.90
46720;DHT22;32452;51.382;-0.002;2022-12-29T06:31:09;9.30;99.90
46720;DHT22;32452;51.382;-0.002;2022-12-29T06:33:55;9.30;99.90
46720;DHT22;32452;51.382;-0.002;2022-12-29T06:36:40;9.20;99.90
46720;DHT22;32452;51.382;-0.002;2022-12-29T06:39:26;9.20;99.90
46720;DHT22;32452;51.382;-0.002;2022-12-29T06:42:11;9.10;99.90
46720;DHT22;32452;51.382;-0.002;2022-12-29T06:44:57;9.10;99.90
46720;DHT22;32452;51.382;-0.002;2022-12-29T06:47:44;9.00;99.90
46720;DHT22;32452;51.382;-0.002;2022-12-29T06:50:30;8.90;99.90
46720;DHT22;32452;51.382;-0.002;2022-12-29T06:53:15;8.90;99.90
46720;DHT22;32452;51.382;-0.002;2022-12-29T06:56:00;8.90;99.90
46720;DHT22;32452;51.382;-0.002;2022-12-29T06:58:46;8.80;99.90
46720;DHT22;32452;51.382;-0.002;2022-12-29T07:01:32;8.80;99.90
46720;DHT22;32452;51.382;-0.002;2022-12-29T07:04:18;8.80;99.90
46720;DHT22;32452;51.382;-0.002;2022-12-29T07:07:03;8.70;99.90
46720;DHT22;32452;51.382;-0.002;2022-12-29T07:09:49;8.70;99.90
46720;DHT22;32452;51.382;-0.002;2022-12-29T07:12:34;8.60;99.90
46720;DHT22;32452;51.382;-0.002;2022-12-29T07:15:20;8.60;99.90
46720;DHT22;32452;51.382;-0.002;2022-12-29T07:18:06;8.60;99.90
46720;DHT22;32452;51.382;-0.002;2022-12-29T07:20:51;8.60;99.90
46720;DHT22;32452;51.382;-0.002;2022-12-29T07:23:37;8.50;99.90
46720;DHT22;32452;51.382;-0.002;2022-12-29T07:26:23;8.50;99.90
46720;DHT22;32452;51.382;-0.002;2022-12-29T07:29:09;8.50;99.90
46720;DHT22;32452;51.382;-0.002;2022-12-29T07:31:55;8.40;99.90
46720;DHT22;32452;51.382;-0.002;2022-12-29T07:34:41;8.40;99.90
46720;DHT22;32452;51.382;-0.002;2022-12-29T07:37:26;8.40;99.90
46720;DHT22;32452;51.382;-0.002;2022-12-29T07:40:13;8.30;99.90
46720;DHT22;32452;51.382;-0.002;2022-12-29T07:42:58;8.30;99.90
46720;DHT22;32452;51.382;-0.002;2022-12-29T07:45:44;8.30;99.90
46720;DHT22;32452;51.382;-0.002;2022-12-29T07:48:30;8.30;99.90
46720;DHT22;32452;51.382;-0.002;2022-12-29T07:51:15;8.30;99.90
46720;DHT22;32452;51.382;-0.002;2022-12-29T07:54:01;8.30;99.90
46720;DHT22;32452;51.382;-0.002;2022-12-29T07:56:47;8.30;99.90
46720;DHT22;32452;51.382;-0.002;2022-12-29T07:59:32;8.30;99.90
46720;DHT22;32452;51.382;-0.002;2022-12-29T08:02:18;8.30;99.90
46720;DHT22;32452;51.382;-0.002;2022-12-29T08:05:03;8.30;99.90
46720;DHT22;32452;51.382;-0.002;2022-12-29T08:07:50;8.30;99.90
46720;DHT22;32452;51.382;-0.002;2022-12-29T08:10:36;8.20;99.90
46720;DHT22;32452;51.382;-0.002;2022-12-29T08:13:21;8.30;99.90
46720;DHT22;32452;51.382;-0.002;2022-12-29T08:16:08;8.20;99.90
46720;DHT22;32452;51.382;-0.002;2022-12-29T08:18:54;8.20;99.90
46720;DHT22;32452;51.382;-0.002;2022-12-29T08:21:40;8.20;99.90
46720;DHT22;32452;51.382;-0.002;2022-12-29T08:24:25;8.30;99.90
46720;DHT22;32452;51.382;-0.002;2022-12-29T08:27:11;8.20;99.90
46720;DHT22;32452;51.382;-0.002;2022-12-29T08:30:05;8.30;99.90
46720;DHT22;32452;51.382;-0.002;2022-12-29T08:32:51;8.20;99.90
46720;DHT22;32452;51.382;-0.002;2022-12-29T08:35:37;8.30;99.90
46720;DHT22;32452;51.382;-0.002;2022-12-29T08:38:22;8.20;99.90
46720;DHT22;32452;51.382;-0.002;2022-12-29T08:41:08;8.30;99.90
46720;DHT22;32452;51.382;-0.002;2022-12-29T08:43:54;8.30;99.90
46720;DHT22;32452;51.382;-0.002;2022-12-29T08:46:39;8.30;99.90
46720;DHT22;32452;51.382;-0.002;2022-12-29T08:49:25;8.30;99.90
46720;DHT22;32452;51.382;-0.002;2022-12-29T08:52:11;8.30;99.90
46720;DHT22;32452;51.382;-0.002;2022-12-29T08:54:56;8.30;99.90
46720;DHT22;32452;51.382;-0.002;2022-12-29T08:57:42;8.30;99.90
46720;DHT22;32452;51.382;-0.002;2022-12-29T09:00:28;8.40;99.90
46720;DHT22;32452;51.382;-0.002;2022-12-29T09:03:14;8.60;99.90
46720;DHT22;32452;51.382;-0.002;2022-12-29T09:06:10;9.00;99.90
46720;DHT22;32452;51.382;-0.002;2022-12-29T09:08:55;9.30;99.90
46720;DHT22;32452;51.382;-0.002;2022-12-29T09:11:41;9.60;99.90
46720;DHT22;32452;51.382;-0.002;2022-12-29T09:14:27;10.10;99.90
46720;DHT22;32452;51.382;-0.002;2022-12-29T09:17:13;10.50;99.90
46720;DHT22;32452;51.382;-0.002;2022-12-29T09:20:17;10.90;99.90
46720;DHT22;32452;51.382;-0.002;2022-12-29T09:23:03;11.10;99.90
46720;DHT22;32452;51.382;-0.002;2022-12-29T09:25:51;11.00;99.90
46720;DHT22;32452;51.382;-0.002;2022-12-29T09:28:36;10.80;99.90
46720;DHT22;32452;51.382;-0.002;2022-12-29T09:31:22;10.60;99.90
46720;DHT22;32452;51.382;-0.002;2022-12-29T09:34:07;10.50;99.90
46720;DHT22;32452;51.382;-0.002;2022-12-29T09:36:53;10.40;99.90
46720;DHT22;32452;51.382;-0.002;2022-12-29T09:39:39;10.40;99.90
46720;DHT22;32452;51.382;-0.002;2022-12-29T09:42:34;10.40;99.90
46720;DHT22;32452;51.382;-0.002;2022-12-29T09:45:33;10.50;99.90
46720;DHT22;32452;51.382;-0.002;2022-12-29T09:48:28;10.40;99.90
46720;DHT22;32452;51.382;-0.002;2022-12-29T09:51:17;10.30;99.90
46720;DHT22;32452;51.382;-0.002;2022-12-29T09:57:34;10.00;99.90
46720;DHT22;32452;51.382;-0.002;2022-12-29T10:00:22;9.90;99.90
46720;DHT22;32452;51.382;-0.002;2022-12-29T10:03:14;9.80;99.90
46720;DHT22;32452;51.382;-0.002;2022-12-29T10:09:37;9.70;99.90
46720;DHT22;32452;51.382;-0.002;2022-12-29T10:12:56;9.70;99.90
46720;DHT22;32452;51.382;-0.002;2022-12-29T10:25:33;9.70;99.90
46720;DHT22;32452;51.382;-0.002;2022-12-29T10:28:25;9.60;99.90
46720;DHT22;32452;51.382;-0.002;2022-12-29T10:31:23;9.60;99.90
46720;DHT22;32452;51.382;-0.002;2022-12-29T10:40:17;9.60;99.90
46720;DHT22;32452;51.382;-0.002;2022-12-29T10:43:20;9.60;99.90
46720;DHT22;32452;51.382;-0.002;2022-12-29T10:46:12;9.70;99.90
46720;DHT22;32452;51.382;-0.002;2022-12-29T10:48:59;9.60;99.90
46720;DHT22;32452;51.382;-0.002;2022-12-29T10:51:48;9.60;99.90
46720;DHT22;32452;51.382;-0.002;2022-12-29T10:55:02;9.60;99.90
46720;DHT22;32452;51.382;-0.002;2022-12-29T10:57:48;9.60;99.90
46720;DHT22;32452;51.382;-0.002;2022-12-29T11:00:34;9.60;99.90
46720;DHT22;32452;51.382;-0.002;2022-12-29T11:06:25;9.90;99.90
46720;DHT22;32452;51.382;-0.002;2022-12-29T11:09:18;9.90;99.70
46720;DHT22;32452;51.382;-0.002;2022-12-29T11:12:20;9.90;99.40
46720;DHT22;32452;51.382;-0.002;2022-12-29T11:17:57;10.10;99.10
46720;DHT22;32452;51.382;-0.002;2022-12-29T11:20:44;10.20;98.80
46720;DHT22;32452;51.382;-0.002;2022-12-29T11:26:23;10.50;97.70
46720;DHT22;32452;51.382;-0.002;2022-12-29T11:35:36;10.90;96.70
46720;DHT22;32452;51.382;-0.002;2022-12-29T11:38:25;11.00;95.40
46720;DHT22;32452;51.382;-0.002;2022-12-29T11:41:18;10.90;94.50
46720;DHT22;32452;51.382;-0.002;2022-12-29T11:44:05;10.70;93.90
46720;DHT22;32452;51.382;-0.002;2022-12-29T11:46:52;10.60;93.60
46720;DHT22;32452;51.382;-0.002;2022-12-29T11:49:38;10.50;93.80
46720;DHT22;32452;51.382;-0.002;2022-12-29T11:52:25;10.50;94.20
46720;DHT22;32452;51.382;-0.002;2022-12-29T11:55:21;10.60;94.10
46720;DHT22;32452;51.382;-0.002;2022-12-29T11:58:14;10.70;93.70
46720;DHT22;32452;51.382;-0.002;2022-12-29T12:01:05;10.70;93.20
46720;DHT22;32452;51.382;-0.002;2022-12-29T12:06:48;10.80;92.60
46720;DHT22;32452;51.382;-0.002;2022-12-29T12:09:40;10.80;91.80
46720;DHT22;32452;51.382;-0.002;2022-12-29T12:15:29;10.60;91.50
46720;DHT22;32452;51.382;-0.002;2022-12-29T12:21:38;10.50;91.10
46720;DHT22;32452;51.382;-0.002;2022-12-29T12:24:52;10.40;90.90
46720;DHT22;32452;51.382;-0.002;2022-12-29T12:27:53;10.30;91.00
46720;DHT22;32452;51.382;-0.002;2022-12-29T12:30:45;10.20;91.10
46720;DHT22;32452;51.382;-0.002;2022-12-29T12:33:42;10.20;91.10
46720;DHT22;32452;51.382;-0.002;2022-12-29T12:43:11;10.20;91.00
46720;DHT22;32452;51.382;-0.002;2022-12-29T12:58:50;10.70;90.70
46720;DHT22;32452;51.382;-0.002;2022-12-29T13:15:24;12.30;82.80
46720;DHT22;32452;51.382;-0.002;2022-12-29T13:18:07;12.10;80.70
46720;DHT22;32452;51.382;-0.002;2022-12-29T13:21:24;12.10;80.10
46720;DHT22;32452;51.382;-0.002;2022-12-29T13:24:41;12.10;78.80
46720;DHT22;32452;51.382;-0.002;2022-12-29T13:36:39;12.20;76.60
46720;DHT22;32452;51.382;-0.002;2022-12-29T13:39:34;12.10;77.10
46720;DHT22;32452;51.382;-0.002;2022-12-29T13:42:21;11.90;77.70
46720;DHT22;32452;51.382;-0.002;2022-12-29T13:45:18;11.80;77.90
46720;DHT22;32452;51.382;-0.002;2022-12-29T13:48:16;11.60;76.80
46720;DHT22;32452;51.382;-0.002;2022-12-29T13:51:03;11.40;76.90
46720;DHT22;32452;51.382;-0.002;2022-12-29T13:54:18;11.20;76.80
46720;DHT22;32452;51.382;-0.002;2022-12-29T14:03:53;10.60;78.20
46720;DHT22;32452;51.382;-0.002;2022-12-29T14:06:40;10.50;78.60
46720;DHT22;32452;51.382;-0.002;2022-12-29T14:09:51;10.40;79.00
46720;DHT22;32452;51.382;-0.002;2022-12-29T14:12:40;10.40;79.10
46720;DHT22;32452;51.382;-0.002;2022-12-29T14:15:26;10.40;79.40
46720;DHT22;32452;51.382;-0.002;2022-12-29T14:18:26;10.50;79.70
46720;DHT22;32452;51.382;-0.002;2022-12-29T14:30:46;10.30;80.00
46720;DHT22;32452;51.382;-0.002;2022-12-29T14:33:34;10.40;80.50
46720;DHT22;32452;51.382;-0.002;2022-12-29T14:36:26;10.60;80.60
46720;DHT22;32452;51.382;-0.002;2022-12-29T14:39:42;10.70;80.20
46720;DHT22;32452;51.382;-0.002;2022-12-29T14:42:29;10.60;79.50
46720;DHT22;32452;51.382;-0.002;2022-12-29T14:51:32;10.60;80.10
46720;DHT22;32452;51.382;-0.002;2022-12-29T14:57:28;10.50;78.60
46720;DHT22;32452;51.382;-0.002;2022-12-29T15:00:21;10.40;78.50
46720;DHT22;32452;51.382;-0.002;2022-12-29T15:03:14;10.30;78.40
46720;DHT22;32452;51.382;-0.002;2022-12-29T15:06:11;10.20;78.90
46720;DHT22;32452;51.382;-0.002;2022-12-29T15:09:08;10.10;79.10
46720;DHT22;32452;51.382;-0.002;2022-12-29T15:12:17;10.00;79.30
46720;DHT22;32452;51.382;-0.002;2022-12-29T15:15:25;9.80;79.50
46720;DHT22;32452;51.382;-0.002;2022-12-29T15:18:25;9.70;79.70
46720;DHT22;32452;51.382;-0.002;2022-12-29T15:21:13;9.70;79.90
46720;DHT22;32452;51.382;-0.002;2022-12-29T15:24:00;9.60;79.80
46720;DHT22;32452;51.382;-0.002;2022-12-29T15:26:49;9.60;79.60
46720;DHT22;32452;51.382;-0.002;2022-12-29T15:29:37;9.50;79.60
46720;DHT22;32452;51.382;-0.002;2022-12-29T15:32:25;9.40;79.60
46720;DHT22;32452;51.382;-0.002;2022-12-29T15:38:26;9.30;79.90
46720;DHT22;32452;51.382;-0.002;2022-12-29T15:44:18;9.10;80.20
46720;DHT22;32452;51.382;-0.002;2022-12-29T15:47:16;9.10;80.40
46720;DHT22;32452;51.382;-0.002;2022-12-29T15:50:14;9.00;80.40
46720;DHT22;32452;51.382;-0.002;2022-12-29T15:53:01;9.00;80.50
46720;DHT22;32452;51.382;-0.002;2022-12-29T15:55:47;8.90;80.60
46720;DHT22;32452;51.382;-0.002;2022-12-29T15:58:49;8.90;80.90
46720;DHT22;32452;51.382;-0.002;2022-12-29T16:01:36;8.90;81.10
46720;DHT22;32452;51.382;-0.002;2022-12-29T16:04:23;8.90;81.30
46720;DHT22;32452;51.382;-0.002;2022-12-29T16:07:32;8.90;81.50
46720;DHT22;32452;51.382;-0.002;2022-12-29T16:10:46;8.80;81.60
46720;DHT22;32452;51.382;-0.002;2022-12-29T16:13:38;8.80;81.70
46720;DHT22;32452;51.382;-0.002;2022-12-29T16:16:35;8.80;81.90
46720;DHT22;32452;51.382;-0.002;2022-12-29T16:19:37;8.70;82.00
46720;DHT22;32452;51.382;-0.002;2022-12-29T16:22:33;8.70;83.00
46720;DHT22;32452;51.382;-0.002;2022-12-29T16:28:58;8.60;82.60
46720;DHT22;32452;51.382;-0.002;2022-12-29T16:31:57;8.60;82.80
46720;DHT22;32452;51.382;-0.002;2022-12-29T16:34:48;8.50;83.00
46720;DHT22;32452;51.382;-0.002;2022-12-29T16:37:35;8.50;83.30
46720;DHT22;32452;51.382;-0.002;2022-12-29T16:40:28;8.40;83.50
46720;DHT22;32452;51.382;-0.002;2022-12-29T16:43:22;8.40;83.80
46720;DHT22;32452;51.382;-0.002;2022-12-29T16:46:27;8.40;84.10
46720;DHT22;32452;51.382;-0.002;2022-12-29T16:49:17;8.40;84.40
46720;DHT22;32452;51.382;-0.002;2022-12-29T16:52:32;8.40;84.70
46720;DHT22;32452;51.382;-0.002;2022-12-29T16:55:20;8.30;85.10
46720;DHT22;32452;51.382;-0.002;2022-12-29T16:58:05;8.30;85.60
46720;DHT22;32452;51.382;-0.002;2022-12-29T17:01:03;8.30;86.10
46720;DHT22;32452;51.382;-0.002;2022-12-29T17:03:57;8.30;86.60
46720;DHT22;32452;51.382;-0.002;2022-12-29T17:06:43;8.20;86.90
46720;DHT22;32452;51.382;-0.002;2022-12-29T17:09:29;8.20;87.40
46720;DHT22;32452;51.382;-0.002;2022-12-29T17:12:27;8.10;87.70
46720;DHT22;32452;51.382;-0.002;2022-12-29T17:15:26;8.10;88.10
46720;DHT22;32452;51.382;-0.002;2022-12-29T17:18:14;8.10;88.60
46720;DHT22;32452;51.382;-0.002;2022-12-29T17:20:59;8.10;89.10
46720;DHT22;32452;51.382;-0.002;2022-12-29T17:23:45;8.00;89.40
46720;DHT22;32452;51.382;-0.002;2022-12-29T17:26:30;8.00;89.60
46720;DHT22;32452;51.382;-0.002;2022-12-29T17:32:14;7.90;90.10
46720;DHT22;32452;51.382;-0.002;2022-12-29T17:35:00;7.90;90.30
46720;DHT22;32452;51.382;-0.002;2022-12-29T17:37:49;7.90;90.40
46720;DHT22;32452;51.382;-0.002;2022-12-29T17:40:35;7.90;90.50
46720;DHT22;32452;51.382;-0.002;2022-12-29T17:43:21;7.90;91.00
46720;DHT22;32452;51.382;-0.002;2022-12-29T17:46:07;7.90;90.80
46720;DHT22;32452;51.382;-0.002;2022-12-29T17:48:53;7.80;90.90
46720;DHT22;32452;51.382;-0.002;2022-12-29T17:51:41;7.80;91.00
46720;DHT22;32452;51.382;-0.002;2022-12-29T17:54:27;7.80;91.50
46720;DHT22;32452;51.382;-0.002;2022-12-29T17:57:14;7.80;91.30
46720;DHT22;32452;51.382;-0.002;2022-12-29T18:00:00;7.70;91.40
46720;DHT22;32452;51.382;-0.002;2022-12-29T18:02:46;7.70;91.60
46720;DHT22;32452;51.382;-0.002;2022-12-29T18:05:32;7.70;91.80
46720;DHT22;32452;51.382;-0.002;2022-12-29T18:08:18;7.70;91.90
46720;DHT22;32452;51.382;-0.002;2022-12-29T18:11:20;7.70;92.20
46720;DHT22;32452;51.382;-0.002;2022-12-29T18:14:16;7.70;92.40
46720;DHT22;32452;51.382;-0.002;2022-12-29T18:17:10;7.70;92.50
46720;DHT22;32452;51.382;-0.002;2022-12-29T18:19:56;7.60;92.70
46720;DHT22;32452;51.382;-0.002;2022-12-29T18:22:42;7.60;92.80
46720;DHT22;32452;51.382;-0.002;2022-12-29T18:25:50;7.60;92.90
46720;DHT22;32452;51.382;-0.002;2022-12-29T18:28:37;7.60;93.10
46720;DHT22;32452;51.382;-0.002;2022-12-29T18:31:28;7.50;93.30
46720;DHT22;32452;51.382;-0.002;2022-12-29T18:34:14;7.50;93.50
46720;DHT22;32452;51.382;-0.002;2022-12-29T18:37:00;7.50;93.60
46720;DHT22;32452;51.382;-0.002;2022-12-29T18:39:47;7.50;93.80
46720;DHT22;32452;51.382;-0.002;2022-12-29T18:42:32;7.50;94.10
46720;DHT22;32452;51.382;-0.002;2022-12-29T18:45:23;7.40;94.20
46720;DHT22;32452;51.382;-0.002;2022-12-29T18:48:08;7.40;94.30
46720;DHT22;32452;51.382;-0.002;2022-12-29T18:50:54;7.40;94.50
46720;DHT22;32452;51.382;-0.002;2022-12-29T18:53:40;7.40;94.70
46720;DHT22;32452;51.382;-0.002;2022-12-29T18:56:26;7.40;94.80
46720;DHT22;32452;51.382;-0.002;2022-12-29T18:59:12;7.40;95.10
46720;DHT22;32452;51.382;-0.002;2022-12-29T19:01:57;7.30;95.20
46720;DHT22;32452;51.382;-0.002;2022-12-29T19:04:42;7.30;95.40
46720;DHT22;32452;51.382;-0.002;2022-12-29T19:07:28;7.30;95.60
46720;DHT22;32452;51.382;-0.002;2022-12-29T19:10:13;7.30;95.80
46720;DHT22;32452;51.382;-0.002;2022-12-29T19:13:00;7.30;95.90
46720;DHT22;32452;51.382;-0.002;2022-12-29T19:15:46;7.30;96.00
46720;DHT22;32452;51.382;-0.002;2022-12-29T19:18:32;7.30;96.20
46720;DHT22;32452;51.382;-0.002;2022-12-29T19:21:29;7.20;96.30
46720;DHT22;32452;51.382;-0.002;2022-12-29T19:24:14;7.20;96.40
46720;DHT22;32452;51.382;-0.002;2022-12-29T19:27:00;7.20;96.50
46720;DHT22;32452;51.382;-0.002;2022-12-29T19:29:45;7.20;96.80
46720;DHT22;32452;51.382;-0.002;2022-12-29T19:32:31;7.20;97.00
46720;DHT22;32452;51.382;-0.002;2022-12-29T19:35:17;7.20;97.30
46720;DHT22;32452;51.382;-0.002;2022-12-29T19:38:03;7.20;97.50
46720;DHT22;32452;51.382;-0.002;2022-12-29T19:40:49;7.20;97.60
46720;DHT22;32452;51.382;-0.002;2022-12-29T19:43:35;7.20;97.80
46720;DHT22;32452;51.382;-0.002;2022-12-29T19:46:20;7.10;97.80
46720;DHT22;32452;51.382;-0.002;2022-12-29T19:49:07;7.10;98.00
46720;DHT22;32452;51.382;-0.002;2022-12-29T19:51:53;7.10;98.00
46720;DHT22;32452;51.382;-0.002;2022-12-29T19:54:38;7.10;98.20
46720;DHT22;32452;51.382;-0.002;2022-12-29T19:57:27;7.10;98.20
46720;DHT22;32452;51.382;-0.002;2022-12-29T20:00:13;7.10;98.40
46720;DHT22;32452;51.382;-0.002;2022-12-29T20:02:59;7.10;98.50
46720;DHT22;32452;51.382;-0.002;2022-12-29T20:05:48;7.10;98.60
46720;DHT22;32452;51.382;-0.002;2022-12-29T20:08:36;7.10;98.60
46720;DHT22;32452;51.382;-0.002;2022-12-29T20:11:24;7.10;98.70
46720;DHT22;32452;51.382;-0.002;2022-12-29T20:14:10;7.10;98.70
46720;DHT22;32452;51.382;-0.002;2022-12-29T20:16:55;7.10;98.80
46720;DHT22;32452;51.382;-0.002;2022-12-29T20:19:58;7.00;98.80
46720;DHT22;32452;51.382;-0.002;2022-12-29T20:22:44;7.00;98.80
46720;DHT22;32452;51.382;-0.002;2022-12-29T20:25:30;7.00;98.80
46720;DHT22;32452;51.382;-0.002;2022-12-29T20:28:30;6.90;99.00
46720;DHT22;32452;51.382;-0.002;2022-12-29T20:31:30;6.90;99.10
46720;DHT22;32452;51.382;-0.002;2022-12-29T20:34:16;6.90;99.20
46720;DHT22;32452;51.382;-0.002;2022-12-29T20:37:05;6.90;99.30